Time;durP1;ratioP1;P1;durP2;ratioP2;P2;SDS_P1;SDS_P2;PMS_P1;PMS_P2;Temp;Humidity;BMP_temperature;BMP_pressure;BME280_temperature;BME280_humidity;BME280_pressure;Samples;Min_cycle;Max_cycle;Signal;HPM_P1;HPM_P2
2022/12/14 03:02:06;;;;;;;27.77;23.70;;;-1.40;99.90;;;;;;5257505;23;20505;-80
2022/12/14 03:04:44;;;;;;;33.83;24.40;;;-1.40;99.90;;;;;;4925609;29;20814;-79
2022/12/14 03:07:29;;;;;;;28.10;23.87;;;-1.40;99.90;;;;;;4928651;29;20442;-79
2022/12/14 03:10:00;;;;;;;26.23;23.53;;;-1.40;99.90;;;;;;4925750;29;20459;-80
2022/12/14 03:12:27;;;;;;;31.47;24.77;;;-1.30;99.90;;;;;;4913423;29;20482;-79
2022/12/14 03:14:56;;;;;;;28.30;23.17;;;-1.40;99.90;;;;;;4923014;29;20463;-80
2022/12/14 03:17:28;;;;;;;25.37;22.63;;;-1.40;99.90;;;;;;4926745;29;20511;-79
2022/12/14 03:19:59;;;;;;;28.37;24.33;;;-1.40;99.90;;;;;;4924935;29;20452;-80
2022/12/14 03:22:30;;;;;;;29.77;24.13;;;-1.40;99.90;;;;;;4925952;29;20487;-80
2022/12/14 03:25:01;;;;;;;25.93;22.10;;;-1.50;99.90;;;;;;4926014;29;20441;-80
2022/12/14 03:27:33;;;;;;;30.77;24.40;;;-1.40;99.90;;;;;;4921068;29;20461;-80
2022/12/14 03:30:06;;;;;;;27.67;24.20;;;-1.40;99.90;;;;;;4928038;29;20463;-80
2022/12/14 03:32:39;;;;;;;28.27;22.70;;;-1.40;99.90;;;;;;4917740;29;21008;-80
2022/12/14 03:35:11;;;;;;;30.97;23.67;;;-1.40;99.90;;;;;;4931517;29;20455;-80
2022/12/14 03:37:41;;;;;;;28.70;23.40;;;-1.50;99.90;;;;;;4921731;29;20503;-80
2022/12/14 03:40:12;;;;;;;28.07;23.57;;;-1.40;99.90;;;;;;4928082;29;20447;-80
2022/12/14 03:42:47;;;;;;;28.47;23.93;;;-1.40;99.90;;;;;;4923584;29;20480;-79
2022/12/14 03:45:18;;;;;;;25.37;22.60;;;-1.40;99.90;;;;;;4928111;29;20442;-80
2022/12/14 03:47:59;;;;;;;26.10;22.83;;;-1.30;99.90;;;;;;4927802;29;20447;-79
2022/12/14 03:50:31;;;;;;;29.73;23.20;;;-1.30;99.90;;;;;;4921578;29;20801;-80
2022/12/14 03:53:05;;;;;;;32.40;22.87;;;-1.20;99.90;;;;;;4921750;29;20460;-78
2022/12/14 03:55:38;;;;;;;28.17;25.10;;;-1.30;99.90;;;;;;4926134;29;20960;-82
2022/12/14 03:58:35;;;;;;;25.77;21.87;;;-1.40;99.90;;;;;;4913471;29;21003;-81
2022/12/14 04:01:10;;;;;;;30.20;24.23;;;-1.30;99.90;;;;;;4900821;29;20484;-81
2022/12/14 04:03:46;;;;;;;25.77;22.67;;;-1.40;99.90;;;;;;4925338;29;20443;-81
2022/12/14 04:06:22;;;;;;;29.17;23.07;;;-1.40;99.90;;;;;;4927175;29;20447;-81
2022/12/14 04:08:56;;;;;;;28.40;23.17;;;-1.30;99.90;;;;;;4924209;29;20448;-81
2022/12/14 04:19:59;;;;;;;25.40;22.80;;;-1.40;99.90;;;;;;4926059;29;20435;-79
2022/12/14 04:22:31;;;;;;;27.77;24.40;;;-1.30;99.90;;;;;;4922347;29;21200;-79
2022/12/14 04:27:49;;;;;;;25.73;22.93;;;-1.20;99.90;;;;;;4917997;29;20478;-80
2022/12/14 04:30:15;;;;;;;25.03;22.60;;;-1.20;99.90;;;;;;4922945;29;20937;-81
2022/12/14 04:32:47;;;;;;;26.17;23.37;;;-1.20;99.90;;;;;;4931326;29;20466;-80
2022/12/14 04:35:20;;;;;;;29.60;24.30;;;-1.10;99.90;;;;;;4926247;29;20441;-80
2022/12/14 04:37:51;;;;;;;25.20;22.47;;;-1.10;99.90;;;;;;4927414;29;20479;-81
2022/12/14 04:40:21;;;;;;;25.60;22.37;;;-1.10;99.90;;;;;;4927134;29;20512;-80
2022/12/14 04:42:53;;;;;;;30.07;23.37;;;-1.10;99.90;;;;;;4925581;29;20841;-80
2022/12/14 04:45:24;;;;;;;26.83;23.90;;;-1.20;99.90;;;;;;4927268;29;20453;-80
2022/12/14 04:47:57;;;;;;;24.40;21.83;;;-1.20;99.90;;;;;;4924847;29;20450;-80
2022/12/14 04:50:29;;;;;;;25.50;22.70;;;-1.20;99.90;;;;;;4925966;29;20448;-79
2022/12/14 04:53:02;;;;;;;24.73;22.23;;;-1.10;99.90;;;;;;4926179;29;20443;-80
2022/12/14 04:55:35;;;;;;;27.07;22.63;;;-1.10;99.90;;;;;;4924764;29;20859;-80
2022/12/14 04:58:08;;;;;;;26.77;23.87;;;-1.10;99.90;;;;;;4925514;29;20471;-80
2022/12/14 05:00:39;;;;;;;27.00;23.23;;;-1.10;99.90;;;;;;4920153;29;20463;-79
2022/12/14 05:03:20;;;;;;;28.20;24.13;;;-1.00;99.90;;;;;;4928881;29;20454;-79
2022/12/14 05:06:02;;;;;;;24.60;22.03;;;-1.00;99.90;;;;;;4925773;29;20463;-80
2022/12/14 05:08:55;;;;;;;28.90;24.40;;;-1.00;99.90;;;;;;4915083;29;20456;-80
2022/12/14 05:11:27;;;;;;;28.10;23.83;;;-1.00;99.90;;;;;;4921262;29;20542;-79
2022/12/14 05:13:54;;;;;;;28.57;23.73;;;-1.00;99.90;;;;;;4921729;29;20456;-79
2022/12/14 05:16:23;;;;;;;29.20;24.77;;;-1.00;99.90;;;;;;4925837;29;20437;-79
2022/12/14 05:18:51;;;;;;;27.13;24.27;;;-1.00;99.90;;;;;;4925008;29;20487;-79
2022/12/14 05:24:01;;;;;;;26.53;23.07;;;-0.90;99.90;;;;;;4919225;29;20448;-80
2022/12/14 05:26:29;;;;;;;27.97;23.47;;;-1.00;99.90;;;;;;4920799;29;20496;-80
2022/12/14 05:28:56;;;;;;;26.53;23.63;;;-1.00;99.90;;;;;;4925641;29;20462;-79
2022/12/14 05:31:23;;;;;;;25.63;23.03;;;-1.00;99.90;;;;;;4919070;29;20578;-80
2022/12/14 05:33:50;;;;;;;26.43;23.57;;;-1.00;99.90;;;;;;4921975;29;20451;-79
2022/12/14 05:36:18;;;;;;;25.90;23.13;;;-1.00;99.90;;;;;;4925299;29;20983;-79
2022/12/14 05:38:45;;;;;;;25.60;22.97;;;-0.90;99.90;;;;;;4924141;29;20475;-81
2022/12/14 05:41:12;;;;;;;28.43;23.87;;;-0.90;99.90;;;;;;4924620;29;20472;-80
2022/12/14 05:43:39;;;;;;;27.00;24.10;;;-0.90;99.90;;;;;;4925983;29;20444;-80
2022/12/14 05:46:06;;;;;;;26.23;23.43;;;-0.90;99.90;;;;;;4926530;29;20454;-81
2022/12/14 05:48:34;;;;;;;27.83;24.30;;;-1.00;99.90;;;;;;4920703;29;20447;-80
2022/12/14 05:51:06;;;;;;;28.37;24.27;;;-1.00;99.90;;;;;;4919827;29;20468;-80
2022/12/14 05:53:34;;;;;;;27.23;24.20;;;-1.00;99.90;;;;;;4913816;29;20467;-79
2022/12/14 05:56:01;;;;;;;27.30;24.50;;;-1.00;99.90;;;;;;4921666;29;20459;-79
2022/12/14 05:58:28;;;;;;;26.23;23.53;;;-0.90;99.90;;;;;;4923598;29;20476;-79
2022/12/14 06:01:00;;;;;;;32.40;26.57;;;-0.90;99.90;;;;;;4922501;29;20930;-79
2022/12/14 06:03:27;;;;;;;28.07;25.07;;;-0.90;99.90;;;;;;4924688;29;20457;-80
2022/12/14 06:05:53;;;;;;;26.70;23.90;;;-0.90;99.90;;;;;;4923577;29;20878;-80
2022/12/14 06:08:21;;;;;;;26.43;22.93;;;-0.90;99.90;;;;;;4921214;29;20436;-80
2022/12/14 06:10:49;;;;;;;27.07;24.17;;;-0.90;99.90;;;;;;4927747;29;20463;-80
2022/12/14 06:13:16;;;;;;;28.13;23.87;;;-0.90;99.90;;;;;;4922724;29;20456;-80
2022/12/14 06:15:43;;;;;;;27.53;23.60;;;-0.90;99.90;;;;;;4925050;29;20444;-81
2022/12/14 06:18:10;;;;;;;27.87;24.63;;;-0.90;99.90;;;;;;4924540;29;20472;-80
2022/12/14 06:20:36;;;;;;;26.90;24.03;;;-0.90;99.90;;;;;;4922995;29;20459;-79
2022/12/14 06:23:03;;;;;;;28.73;25.10;;;-0.90;99.90;;;;;;4925304;29;20466;-81
2022/12/14 06:25:30;;;;;;;28.23;24.70;;;-0.90;99.90;;;;;;4920528;29;20474;-80
2022/12/14 06:27:58;;;;;;;28.37;25.23;;;-0.90;99.90;;;;;;4927445;29;20858;-80
2022/12/14 06:30:25;;;;;;;27.10;24.20;;;-0.90;99.90;;;;;;4922612;29;20443;-80
2022/12/14 06:32:52;;;;;;;29.53;24.43;;;-0.90;99.90;;;;;;4926919;29;20440;-80
2022/12/14 06:35:19;;;;;;;28.67;25.57;;;-0.80;99.90;;;;;;4929249;29;20455;-79
2022/12/14 06:37:46;;;;;;;26.63;23.93;;;-0.90;99.90;;;;;;4921603;29;20503;-80
2022/12/14 06:40:12;;;;;;;27.57;24.87;;;-0.80;99.90;;;;;;4928879;29;20439;-80
2022/12/14 06:42:39;;;;;;;27.17;24.33;;;-0.80;99.90;;;;;;4926466;29;21078;-80
2022/12/14 06:45:08;;;;;;;26.97;24.07;;;-0.90;99.90;;;;;;4926527;29;20500;-81
2022/12/14 06:47:35;;;;;;;26.83;24.03;;;-0.80;99.90;;;;;;4930013;29;20446;-81
2022/12/14 06:50:02;;;;;;;29.87;26.03;;;-0.80;99.90;;;;;;4926880;29;20460;-79
2022/12/14 06:52:29;;;;;;;29.53;26.00;;;-0.70;99.90;;;;;;4926978;29;20468;-80
2022/12/14 06:54:56;;;;;;;32.57;25.07;;;-0.70;99.90;;;;;;4926612;29;20458;-80
2022/12/14 06:57:23;;;;;;;28.10;24.57;;;-0.70;99.90;;;;;;4927518;29;20455;-81
2022/12/14 06:59:49;;;;;;;27.63;24.70;;;-0.70;99.90;;;;;;4927680;29;20475;-81
2022/12/14 07:02:18;;;;;;;29.10;25.47;;;-0.70;99.90;;;;;;4931104;29;20561;-81
2022/12/14 07:04:44;;;;;;;27.90;24.57;;;-0.70;99.90;;;;;;4925790;29;20468;-81
2022/12/14 07:07:11;;;;;;;32.37;25.90;;;-0.80;99.90;;;;;;4933865;29;20459;-81
2022/12/14 07:09:38;;;;;;;30.30;25.90;;;-0.80;99.90;;;;;;4927296;29;20811;-83
2022/12/14 07:12:06;;;;;;;32.40;28.02;;;-0.70;99.90;;;;;;4931787;29;20839;-82
2022/12/14 07:14:32;;;;;;;27.27;24.30;;;-0.70;99.90;;;;;;4935209;29;20196;-83
2022/12/14 07:16:59;;;;;;;27.27;24.37;;;-0.70;99.90;;;;;;4923302;29;20555;-83
2022/12/14 07:19:27;;;;;;;31.55;28.30;;;-0.70;99.90;;;;;;4932828;29;20460;-82
2022/12/14 07:21:54;;;;;;;28.63;25.60;;;-0.80;99.90;;;;;;4926843;29;20233;-83
2022/12/14 07:24:21;;;;;;;27.60;24.70;;;-0.80;99.90;;;;;;4929546;29;20459;-82
2022/12/14 07:26:48;;;;;;;27.07;24.17;;;-0.70;99.90;;;;;;4928639;29;20446;-82
2022/12/14 07:29:16;;;;;;;28.97;25.03;;;-0.70;99.90;;;;;;4930579;29;20462;-81
2022/12/14 07:31:42;;;;;;;30.97;25.20;;;-0.80;99.90;;;;;;4923024;29;20985;-81
2022/12/14 07:34:11;;;;;;;27.20;24.20;;;-0.70;99.90;;;;;;4932362;29;20457;-82
2022/12/14 07:36:39;;;;;;;29.00;25.80;;;-0.70;99.90;;;;;;4934988;29;20450;-82
2022/12/14 07:39:06;;;;;;;29.50;26.13;;;-0.70;99.90;;;;;;4916422;29;21024;-81
2022/12/14 07:41:33;;;;;;;31.53;25.87;;;-0.60;99.90;;;;;;4916883;29;20562;-82
2022/12/14 07:44:00;;;;;;;28.50;25.43;;;-0.60;99.90;;;;;;4921216;29;20496;-81
2022/12/14 07:46:30;;;;;;;28.40;25.37;;;-0.60;99.90;;;;;;4920664;29;20456;-81
2022/12/14 07:48:59;;;;;;;28.90;25.87;;;-0.70;99.90;;;;;;4925898;29;20547;-81
2022/12/14 07:51:28;;;;;;;29.38;25.55;;;-0.70;99.90;;;;;;4928346;29;20444;-81
2022/12/14 07:53:57;;;;;;;28.33;24.70;;;-0.70;99.90;;;;;;4929262;29;20208;-82
2022/12/14 07:56:26;;;;;;;28.67;25.20;;;-0.70;99.90;;;;;;4926896;29;20510;-82
2022/12/14 07:58:57;;;;;;;28.73;25.60;;;-0.70;99.90;;;;;;4928197;29;20499;-81
2022/12/14 08:01:26;;;;;;;31.50;25.80;;;-0.60;99.90;;;;;;4926304;29;20498;-81
2022/12/14 08:03:55;;;;;;;26.27;23.50;;;-0.60;99.90;;;;;;4921122;29;20529;-80
2022/12/14 08:06:26;;;;;;;27.10;24.07;;;-0.60;99.90;;;;;;4921990;29;21145;-81
2022/12/14 08:08:59;;;;;;;30.43;26.60;;;-0.60;99.90;;;;;;4928681;29;20447;-80
2022/12/14 08:11:27;;;;;;;27.83;24.83;;;-0.60;99.90;;;;;;4924570;29;20508;-80
2022/12/14 08:13:54;;;;;;;31.33;25.77;;;-0.60;99.90;;;;;;4929428;29;20471;-80
2022/12/14 08:16:21;;;;;;;28.13;24.07;;;-0.60;99.90;;;;;;4925515;29;20968;-80
2022/12/14 08:18:50;;;;;;;29.13;25.30;;;-0.60;99.90;;;;;;4930207;29;20621;-80
2022/12/14 08:21:19;;;;;;;33.67;27.20;;;-0.50;99.90;;;;;;4918044;29;20476;-80
2022/12/14 08:23:47;;;;;;;28.87;25.80;;;-0.40;99.90;;;;;;4926507;29;20490;-80
2022/12/14 08:26:15;;;;;;;37.37;27.70;;;-0.30;99.90;;;;;;4934188;29;20437;-80
2022/12/14 08:28:42;;;;;;;38.00;29.50;;;-0.30;99.90;;;;;;4927216;29;20484;-80
2022/12/14 08:31:11;;;;;;;36.67;29.10;;;-0.30;99.90;;;;;;4932792;29;20831;-79
2022/12/14 08:33:39;;;;;;;33.03;29.30;;;-0.20;99.90;;;;;;4929598;29;20436;-79
2022/12/14 08:36:08;;;;;;;31.23;27.40;;;-0.20;99.90;;;;;;4917286;29;20468;-79
2022/12/14 08:38:35;;;;;;;33.77;29.20;;;-0.10;99.90;;;;;;4934167;29;20459;-80
2022/12/14 08:41:03;;;;;;;33.27;28.67;;;-0.20;99.90;;;;;;4923969;29;20914;-79
2022/12/14 08:43:32;;;;;;;32.27;27.83;;;-0.10;99.90;;;;;;4930724;29;20514;-79
2022/12/14 08:45:58;;;;;;;31.23;27.83;;;-0.10;99.90;;;;;;4925522;29;20446;-79
2022/12/14 08:48:25;;;;;;;31.33;27.90;;;-0.20;99.90;;;;;;4927724;29;20461;-79
2022/12/14 08:50:52;;;;;;;29.40;26.30;;;-0.10;99.90;;;;;;4920823;29;20859;-82
2022/12/14 08:53:20;;;;;;;31.07;26.83;;;-0.10;99.90;;;;;;4916828;29;20453;-84
2022/12/14 08:55:47;;;;;;;31.37;28.03;;;-0.10;99.90;;;;;;4917237;29;20962;-81
2022/12/14 08:58:13;;;;;;;31.87;28.10;;;-0.10;99.90;;;;;;4922488;29;20470;-82
2022/12/14 09:00:42;;;;;;;29.77;26.73;;;-0.10;99.90;;;;;;4923631;29;20509;-79
2022/12/14 09:03:09;;;;;;;31.43;27.30;;;-0.10;99.90;;;;;;4932665;29;20447;-81
2022/12/14 09:05:35;;;;;;;35.03;28.60;;;-0.10;99.90;;;;;;4924625;29;20508;-80
2022/12/14 09:08:02;;;;;;;34.30;28.93;;;0.00;99.90;;;;;;4930975;29;20457;-80
2022/12/14 09:10:30;;;;;;;34.37;29.37;;;-0.10;99.90;;;;;;4925960;29;20472;-80
2022/12/14 09:12:58;;;;;;;36.23;29.23;;;-0.10;99.90;;;;;;4930766;29;20463;-80
2022/12/14 09:15:24;;;;;;;34.57;27.60;;;-0.10;99.90;;;;;;4926896;29;20433;-81
2022/12/14 09:17:53;;;;;;;33.10;28.87;;;0.00;99.90;;;;;;4924342;29;20465;-80
2022/12/14 09:20:20;;;;;;;34.57;30.33;;;0.00;99.90;;;;;;4925008;29;20572;-81
2022/12/14 09:22:46;;;;;;;30.40;27.13;;;0.10;99.90;;;;;;4915062;29;20486;-81
2022/12/14 09:25:13;;;;;;;34.63;28.70;;;0.10;99.90;;;;;;4924672;29;20464;-81
2022/12/14 09:27:40;;;;;;;36.23;30.30;;;0.20;99.90;;;;;;4925772;29;20841;-80
2022/12/14 09:30:08;;;;;;;32.67;28.83;;;0.20;99.90;;;;;;4927656;29;20527;-81
2022/12/14 09:32:34;;;;;;;33.00;29.23;;;0.30;99.90;;;;;;4928484;29;20517;-80
2022/12/14 09:35:03;;;;;;;34.07;29.47;;;0.30;99.90;;;;;;4925917;29;20457;-81
2022/12/14 09:37:30;;;;;;;34.43;30.70;;;0.30;99.90;;;;;;4925146;29;20460;-82
2022/12/14 09:39:59;;;;;;;35.00;31.23;;;0.30;99.90;;;;;;4926684;29;20919;-82
2022/12/14 09:42:44;;;;;;;34.07;30.23;;;0.30;99.90;;;;;;4925149;29;20594;-81
2022/12/14 09:45:17;;;;;;;33.40;29.70;;;0.30;99.90;;;;;;4925544;29;20453;-82
2022/12/14 09:47:53;;;;;;;33.67;29.93;;;0.30;99.90;;;;;;4926514;29;20492;-82
2022/12/14 09:50:23;;;;;;;36.43;30.07;;;0.30;99.90;;;;;;4924464;29;20455;-84
2022/12/14 09:52:53;;;;;;;36.57;29.47;;;0.30;99.90;;;;;;4925535;29;20952;-81
2022/12/14 09:55:25;;;;;;;34.23;29.83;;;0.30;99.90;;;;;;4927700;29;20477;-81
2022/12/14 09:57:56;;;;;;;36.00;31.00;;;0.20;99.90;;;;;;4926817;29;20525;-81
2022/12/14 10:00:23;;;;;;;36.23;31.80;;;0.20;99.90;;;;;;4923409;29;20492;-80
2022/12/14 10:03:02;;;;;;;35.43;30.03;;;0.10;99.90;;;;;;4911059;29;21008;-79
2022/12/14 10:05:50;;;;;;;35.07;30.13;;;0.10;99.90;;;;;;4916560;29;20452;-80
2022/12/14 10:08:22;;;;;;;32.87;29.47;;;0.20;99.90;;;;;;4911646;29;20455;-85
2022/12/14 10:10:56;;;;;;;36.30;31.03;;;0.20;99.90;;;;;;4916521;29;20479;-82
2022/12/14 10:13:34;;;;;;;36.30;31.33;;;0.30;99.90;;;;;;4929171;29;20905;-82
2022/12/14 10:16:14;;;;;;;44.57;33.07;;;0.30;99.90;;;;;;4929890;29;20465;-83
2022/12/14 10:19:01;;;;;;;33.83;30.20;;;0.30;99.90;;;;;;4925624;29;20460;-83
2022/12/14 10:21:39;;;;;;;35.70;31.00;;;0.30;99.90;;;;;;4917805;29;20481;-82
2022/12/14 10:24:13;;;;;;;34.83;30.97;;;0.30;99.90;;;;;;4927891;29;20463;-81
2022/12/14 10:26:45;;;;;;;33.60;29.93;;;0.30;99.90;;;;;;4924387;29;20444;-80
2022/12/14 10:29:17;;;;;;;37.37;30.83;;;0.40;99.90;;;;;;4919159;29;20459;-82
2022/12/14 10:31:52;;;;;;;34.50;30.77;;;0.50;99.90;;;;;;4921284;29;20471;-82
2022/12/14 10:34:22;;;;;;;34.30;30.33;;;0.50;99.90;;;;;;4928028;29;20430;-82
2022/12/14 10:36:53;;;;;;;37.47;30.50;;;0.50;99.90;;;;;;4929472;29;20484;-82
2022/12/14 10:39:26;;;;;;;33.17;29.60;;;0.60;99.90;;;;;;4926878;29;20475;-82
2022/12/14 10:42:00;;;;;;;34.07;30.30;;;0.60;99.90;;;;;;4932428;29;20475;-83
2022/12/14 10:44:35;;;;;;;35.00;30.03;;;0.70;99.90;;;;;;4926102;29;20808;-83
2022/12/14 10:47:12;;;;;;;35.40;30.13;;;0.70;99.90;;;;;;4929995;29;20446;-82
2022/12/14 10:49:46;;;;;;;34.00;30.23;;;0.80;99.90;;;;;;4923649;29;20446;-82
2022/12/14 10:52:18;;;;;;;38.33;32.13;;;0.70;99.90;;;;;;4928568;29;20483;-82
2022/12/14 10:54:50;;;;;;;37.10;31.43;;;0.70;99.90;;;;;;4926988;29;20441;-82
2022/12/14 10:57:19;;;;;;;33.30;29.83;;;0.60;99.90;;;;;;4932464;29;21208;-82
2022/12/14 10:59:46;;;;;;;37.03;31.37;;;0.70;99.90;;;;;;4921267;29;20495;-80
2022/12/14 11:02:16;;;;;;;36.83;32.40;;;0.80;99.90;;;;;;4914231;29;20485;-82
2022/12/14 11:04:50;;;;;;;37.33;33.07;;;0.80;99.90;;;;;;4919596;29;20503;-81
2022/12/14 11:07:20;;;;;;;41.17;32.70;;;0.80;99.90;;;;;;4922745;29;20449;-81
2022/12/14 11:09:47;;;;;;;38.97;32.00;;;0.70;99.90;;;;;;4928488;29;20454;-81
2022/12/14 11:12:21;;;;;;;38.57;33.00;;;0.80;99.90;;;;;;4927005;29;20483;-81
2022/12/14 11:14:58;;;;;;;33.63;29.97;;;0.80;99.90;;;;;;4929492;29;20452;-81
2022/12/14 11:17:36;;;;;;;36.13;30.83;;;0.90;99.90;;;;;;4926241;29;20470;-81
2022/12/14 11:20:16;;;;;;;39.73;32.87;;;1.00;99.90;;;;;;4925790;29;20540;-81
2022/12/14 11:22:45;;;;;;;35.43;31.63;;;1.00;99.90;;;;;;4920058;29;20483;-82
2022/12/14 11:25:33;;;;;;;38.33;32.87;;;1.10;99.90;;;;;;4927120;29;20452;-81
2022/12/14 11:28:05;;;;;;;37.57;32.73;;;1.10;99.90;;;;;;4923756;29;20526;-81
2022/12/14 11:30:31;;;;;;;38.30;32.77;;;1.10;99.90;;;;;;4924040;29;20512;-82
2022/12/14 11:32:58;;;;;;;37.83;32.97;;;1.20;99.90;;;;;;4928790;29;20453;-81
2022/12/14 11:35:25;;;;;;;38.83;34.30;;;1.20;99.90;;;;;;4920594;29;20465;-79
2022/12/14 11:37:59;;;;;;;37.17;32.93;;;1.30;99.90;;;;;;4933380;29;20458;-80
2022/12/14 11:40:27;;;;;;;37.00;32.87;;;1.40;99.90;;;;;;4931120;29;20479;-80
2022/12/14 11:43:00;;;;;;;38.53;33.53;;;1.40;99.90;;;;;;4935293;29;20977;-80
2022/12/14 11:45:30;;;;;;;36.83;32.77;;;1.40;99.90;;;;;;4923803;29;20857;-78
2022/12/14 11:48:18;;;;;;;35.93;32.07;;;1.50;99.90;;;;;;4929633;29;20481;-78
2022/12/14 11:50:47;;;;;;;41.23;34.07;;;1.50;99.90;;;;;;4926443;29;20483;-78
2022/12/14 11:53:18;;;;;;;37.17;33.13;;;1.40;99.90;;;;;;4930606;29;20471;-78
2022/12/14 11:55:49;;;;;;;37.80;32.57;;;1.50;99.90;;;;;;4927002;29;20459;-78
2022/12/14 11:58:20;;;;;;;37.57;33.40;;;1.40;99.90;;;;;;4927061;29;20475;-78
2022/12/14 12:00:50;;;;;;;35.80;32.00;;;1.30;99.90;;;;;;4931367;29;20521;-79
2022/12/14 12:03:23;;;;;;;36.77;32.93;;;1.20;99.90;;;;;;4926193;29;20455;-80
2022/12/14 12:05:51;;;;;;;37.07;33.07;;;1.20;99.90;;;;;;4929250;29;20439;-80
2022/12/14 12:08:23;;;;;;;38.07;32.27;;;1.20;99.90;;;;;;4919232;29;20808;-80
2022/12/14 12:10:51;;;;;;;38.17;33.67;;;1.20;99.90;;;;;;4922315;29;20478;-79
2022/12/14 12:13:24;;;;;;;38.83;33.97;;;1.30;99.90;;;;;;4929085;29;20450;-79
2022/12/14 12:15:55;;;;;;;37.50;33.60;;;1.30;99.90;;;;;;4923368;29;20463;-77
2022/12/14 12:18:26;;;;;;;41.33;33.67;;;1.30;99.90;;;;;;4933918;29;20446;-77
2022/12/14 12:20:56;;;;;;;36.93;32.97;;;1.40;99.90;;;;;;4936160;29;20541;-77
2022/12/14 12:23:32;;;;;;;36.53;32.63;;;1.40;99.90;;;;;;4929250;29;20452;-77
2022/12/14 12:26:01;;;;;;;42.00;35.83;;;1.40;99.90;;;;;;4937893;29;20482;-77
2022/12/14 12:28:31;;;;;;;40.17;35.50;;;1.40;99.90;;;;;;4923930;29;20873;-77
2022/12/14 12:31:03;;;;;;;41.47;36.73;;;1.40;99.90;;;;;;4928552;29;20847;-77
2022/12/14 12:33:37;;;;;;;44.83;37.33;;;1.50;99.90;;;;;;4929871;29;20448;-77
2022/12/14 12:36:05;;;;;;;39.60;35.33;;;1.60;99.90;;;;;;4928048;29;20487;-77
2022/12/14 12:38:44;;;;;;;42.93;35.97;;;1.60;99.90;;;;;;4934391;29;20456;-77
2022/12/14 12:41:23;;;;;;;42.30;35.57;;;1.60;99.90;;;;;;4927254;29;20515;-77
2022/12/14 12:43:54;;;;;;;41.20;36.23;;;1.60;99.90;;;;;;4933015;29;20460;-77
2022/12/14 12:46:26;;;;;;;41.67;35.10;;;1.70;99.90;;;;;;4930062;29;20546;-77
2022/12/14 12:48:58;;;;;;;37.43;33.43;;;1.80;99.90;;;;;;4931111;29;20850;-77
2022/12/14 12:51:28;;;;;;;37.23;32.73;;;1.80;99.90;;;;;;4932680;29;20462;-77
2022/12/14 12:54:00;;;;;;;39.10;34.17;;;1.80;99.90;;;;;;4931803;29;20447;-77
2022/12/14 12:56:40;;;;;;;37.90;33.80;;;1.90;99.90;;;;;;4920721;29;20986;-77
2022/12/14 12:59:09;;;;;;;41.10;35.00;;;1.90;99.90;;;;;;4931138;29;20455;-78
2022/12/14 13:01:39;;;;;;;41.07;33.93;;;1.90;99.90;;;;;;4931462;29;20490;-78
2022/12/14 13:04:10;;;;;;;40.37;35.67;;;1.90;99.90;;;;;;4931455;29;20207;-77
2022/12/14 13:06:44;;;;;;;39.17;34.27;;;1.80;99.90;;;;;;4924514;29;20486;-78
2022/12/14 13:09:21;;;;;;;39.33;35.23;;;1.80;99.90;;;;;;4924017;29;20452;-77
2022/12/14 13:11:48;;;;;;;40.10;35.73;;;1.80;99.90;;;;;;4932990;29;20846;-77
2022/12/14 13:14:27;;;;;;;43.30;36.03;;;1.80;99.90;;;;;;4930013;29;20452;-77
2022/12/14 13:16:55;;;;;;;43.93;35.30;;;1.80;99.90;;;;;;4932380;29;20207;-77
2022/12/14 13:19:30;;;;;;;39.43;35.20;;;1.80;99.90;;;;;;4930896;29;20489;-77
2022/12/14 13:21:57;;;;;;;42.30;36.47;;;1.80;99.90;;;;;;4930974;29;20525;-77
2022/12/14 13:24:26;;;;;;;43.87;37.57;;;1.90;99.90;;;;;;4931449;29;20451;-77
2022/12/14 13:27:17;;;;;;;42.60;35.50;;;1.90;99.90;;;;;;4930800;29;20457;-77
2022/12/14 13:30:00;;;;;;;39.30;35.00;;;1.90;99.90;;;;;;4913129;29;20451;-77
2022/12/14 13:32:42;;;;;;;39.33;33.93;;;2.00;99.90;;;;;;4924736;29;20230;-77
2022/12/14 13:35:24;;;;;;;41.23;35.33;;;2.00;99.90;;;;;;4931102;29;20439;-78
2022/12/14 13:38:03;;;;;;;37.53;33.53;;;1.90;99.90;;;;;;4930730;29;20510;-77
2022/12/14 13:40:56;;;;;;;39.50;35.20;;;1.90;99.90;;;;;;4913056;29;20219;-81
2022/12/14 13:43:40;;;;;;;36.60;32.60;;;1.90;99.90;;;;;;4926332;29;20219;-80
2022/12/14 13:46:15;;;;;;;39.63;33.67;;;1.90;99.90;;;;;;4916955;29;20410;-80
2022/12/14 13:48:43;;;;;;;35.90;32.07;;;1.90;99.90;;;;;;4908596;29;20450;-79
2022/12/14 13:51:23;;;;;;;37.20;32.33;;;1.90;99.90;;;;;;4941102;28;20618;-80
2022/12/14 13:53:53;;;;;;;36.43;31.67;;;1.90;99.90;;;;;;4923985;29;20440;-80
2022/12/14 13:56:24;;;;;;;35.13;31.33;;;1.90;99.90;;;;;;4925417;29;20213;-80
2022/12/14 13:58:54;;;;;;;34.90;31.13;;;1.90;99.90;;;;;;4923994;29;20483;-79
2022/12/14 14:01:54;;;;;;;35.07;31.17;;;1.90;99.90;;;;;;4919269;29;20487;-80
2022/12/14 14:04:23;;;;;;;33.87;30.43;;;1.90;99.90;;;;;;4918397;29;20495;-79
2022/12/14 14:06:51;;;;;;;32.87;29.47;;;1.90;99.90;;;;;;4920015;29;20508;-80
2022/12/14 14:10:00;;;;;;;36.83;32.23;;;1.90;99.90;;;;;;4926550;29;20448;-80
2022/12/14 14:12:42;;;;;;;34.63;31.00;;;1.90;99.90;;;;;;4912570;29;20467;-80
2022/12/14 14:15:35;;;;;;;32.87;29.37;;;1.80;99.90;;;;;;4919504;29;21050;-80
2022/12/14 14:18:22;;;;;;;35.83;30.67;;;1.80;99.90;;;;;;4911097;29;20561;-79
2022/12/14 14:20:51;;;;;;;36.67;31.00;;;1.80;99.90;;;;;;4923756;29;20487;-79
2022/12/14 14:23:34;;;;;;;35.60;31.77;;;1.80;99.90;;;;;;4924848;29;20934;-77
2022/12/14 14:26:24;;;;;;;38.57;34.47;;;1.80;99.90;;;;;;4922354;29;20550;-80
2022/12/14 14:29:17;;;;;;;40.30;33.43;;;1.70;99.90;;;;;;4921585;29;20484;-79
2022/12/14 14:31:53;;;;;;;39.03;33.73;;;1.60;99.90;;;;;;4919302;29;20474;-79
2022/12/14 14:34:49;;;;;;;42.70;35.00;;;1.60;99.90;;;;;;4922627;29;21017;-82
2022/12/14 14:37:32;;;;;;;38.60;34.40;;;1.60;99.90;;;;;;4921599;29;20455;-80
2022/12/14 14:40:28;;;;;;;40.70;35.33;;;1.50;99.90;;;;;;4922864;29;20855;-81
2022/12/14 14:43:01;;;;;;;43.53;35.40;;;1.50;99.90;;;;;;4919016;29;20462;-81
2022/12/14 14:45:37;;;;;;;42.33;35.93;;;1.50;99.90;;;;;;4910410;29;20984;-81
2022/12/14 14:48:11;;;;;;;42.83;36.00;;;1.40;99.90;;;;;;4924894;29;20457;-81
2022/12/14 14:50:41;;;;;;;38.97;34.77;;;1.40;99.90;;;;;;4921579;29;20458;-80
2022/12/14 14:53:26;;;;;;;39.40;35.17;;;1.40;99.90;;;;;;4919552;29;20451;-79
2022/12/14 14:56:05;;;;;;;43.13;36.37;;;1.40;99.90;;;;;;4914893;29;20522;-81
2022/12/14 14:58:34;;;;;;;45.03;37.60;;;1.40;99.90;;;;;;4924666;29;20455;-80
2022/12/14 15:01:19;;;;;;;40.17;35.77;;;1.40;99.90;;;;;;4925567;29;20497;-80
2022/12/14 15:03:51;;;;;;;42.90;37.13;;;1.40;99.90;;;;;;4921848;29;20539;-81
2022/12/14 15:06:22;;;;;;;39.13;34.77;;;1.40;99.90;;;;;;4931260;29;20462;-83
2022/12/14 15:08:53;;;;;;;48.27;40.00;;;1.40;99.90;;;;;;4909925;29;20995;-83
2022/12/14 15:11:22;;;;;;;43.83;37.30;;;1.40;99.90;;;;;;4918755;29;20480;-83
2022/12/14 15:13:54;;;;;;;41.57;37.03;;;1.30;99.90;;;;;;4929306;29;20457;-81
2022/12/14 15:16:29;;;;;;;45.00;37.57;;;1.30;99.90;;;;;;4930481;29;20452;-83
2022/12/14 15:19:22;;;;;;;43.67;37.50;;;1.20;99.90;;;;;;4929445;29;20469;-83
2022/12/14 15:21:51;;;;;;;43.73;38.47;;;1.20;99.90;;;;;;4921100;29;21026;-83
2022/12/14 15:24:19;;;;;;;52.03;40.60;;;1.20;99.90;;;;;;4931887;29;20481;-81
2022/12/14 15:26:46;;;;;;;52.40;41.17;;;1.20;99.90;;;;;;4927586;29;20798;-82
2022/12/14 15:29:18;;;;;;;57.43;42.77;;;1.20;99.90;;;;;;4932829;29;20955;-85
2022/12/14 15:31:54;;;;;;;50.57;40.43;;;1.10;99.90;;;;;;4926729;29;20497;-80
2022/12/14 15:34:21;;;;;;;52.13;39.80;;;1.10;99.90;;;;;;4931726;29;20521;-79
2022/12/14 15:36:49;;;;;;;57.77;43.33;;;1.00;99.90;;;;;;4917903;29;20492;-80
2022/12/14 15:39:28;;;;;;;53.90;42.70;;;1.00;99.90;;;;;;4925259;29;20459;-80
2022/12/14 15:42:02;;;;;;;49.37;40.37;;;0.90;99.90;;;;;;4927108;29;20493;-79
2022/12/14 15:44:29;;;;;;;56.60;42.10;;;0.90;99.90;;;;;;4909732;29;20457;-80
2022/12/14 15:46:57;;;;;;;59.23;44.70;;;1.00;99.90;;;;;;4929321;29;20512;-81
2022/12/14 15:49:24;;;;;;;57.20;44.20;;;1.00;99.90;;;;;;4928046;29;20532;-82
2022/12/14 15:51:52;;;;;;;50.13;41.27;;;1.00;99.90;;;;;;4935287;29;20469;-82
2022/12/14 15:54:22;;;;;;;58.60;44.30;;;1.00;99.90;;;;;;4931347;29;20819;-81
2022/12/14 15:56:51;;;;;;;54.10;43.47;;;1.00;99.90;;;;;;4928595;29;20985;-80
2022/12/14 15:59:20;;;;;;;60.47;44.63;;;1.00;99.90;;;;;;4927028;29;20523;-81
2022/12/14 16:01:49;;;;;;;56.40;44.87;;;0.90;99.90;;;;;;4918514;29;20888;-79
2022/12/14 16:04:21;;;;;;;59.33;45.40;;;0.90;99.90;;;;;;4929053;29;20454;-79
2022/12/14 16:06:51;;;;;;;52.53;43.70;;;0.80;99.90;;;;;;4930336;29;20445;-80
2022/12/14 16:09:23;;;;;;;58.90;44.73;;;0.90;99.90;;;;;;4928357;29;20465;-80
2022/12/14 16:11:54;;;;;;;64.10;46.60;;;0.90;99.90;;;;;;4919898;29;20861;-81